createdAt,value
2018-04-19T00:01:25.450Z,6.57
2018-04-19T00:03:52.389Z,5.87
2018-04-19T00:06:19.345Z,5.77
2018-04-19T00:08:46.199Z,6.70
2018-04-19T00:11:13.079Z,5.80
2018-04-19T00:13:39.946Z,6.50
2018-04-19T00:16:06.886Z,5.47
2018-04-19T00:18:33.726Z,6.00
2018-04-19T00:21:00.696Z,5.80
2018-04-19T00:23:27.958Z,5.30
2018-04-19T00:25:54.842Z,5.90
2018-04-19T00:28:21.693Z,5.20
2018-04-19T00:30:48.647Z,6.03
2018-04-19T00:33:15.507Z,5.40
2018-04-19T00:35:42.474Z,5.40
2018-04-19T00:38:09.415Z,6.07
2018-04-19T00:40:36.368Z,6.60
2018-04-19T00:43:03.204Z,6.43
2018-04-19T00:45:30.470Z,6.40
2018-04-19T00:47:57.758Z,6.27
2018-04-19T00:50:24.601Z,6.40
2018-04-19T00:53:03.586Z,6.00
2018-04-19T00:55:30.446Z,6.00
2018-04-19T00:57:57.379Z,5.40
2018-04-19T01:00:24.228Z,6.07
2018-04-19T01:02:51.194Z,6.27
2018-04-19T01:05:18.149Z,6.30
2018-04-19T01:07:45.052Z,5.80
2018-04-19T01:10:12.099Z,6.20
2018-04-19T01:12:39.034Z,6.83
2018-04-19T01:15:05.894Z,6.00
2018-04-19T01:17:32.735Z,6.33
2018-04-19T01:19:59.588Z,6.13
2018-04-19T01:22:26.460Z,6.23
2018-04-19T01:24:53.323Z,6.90
2018-04-19T01:27:20.274Z,5.60
2018-04-19T01:29:47.145Z,6.67
2018-04-19T01:32:14.111Z,7.03
2018-04-19T01:34:40.966Z,5.80
2018-04-19T01:37:07.798Z,5.80
2018-04-19T01:39:34.760Z,5.70
2018-04-19T01:42:01.765Z,5.40
2018-04-19T01:44:28.575Z,5.87
2018-04-19T01:46:55.418Z,5.90
2018-04-19T01:49:22.285Z,5.97
2018-04-19T01:51:49.126Z,5.87
2018-04-19T01:54:16.389Z,6.50
2018-04-19T01:56:43.649Z,5.93
2018-04-19T01:59:10.951Z,7.03
2018-04-19T02:01:37.811Z,6.03
2018-04-19T02:04:04.650Z,6.00
2018-04-19T02:06:31.513Z,6.60
2018-04-19T02:08:58.574Z,6.60
2018-04-19T02:11:25.839Z,5.97
2018-04-19T02:13:52.702Z,5.90
2018-04-19T02:16:19.539Z,5.83
2018-04-19T02:18:46.786Z,5.70
2018-04-19T02:21:13.638Z,5.37
2018-04-19T02:23:40.504Z,6.00
2018-04-19T02:26:07.385Z,6.40
2018-04-19T02:28:34.263Z,5.90
2018-04-19T02:31:01.119Z,6.27
2018-04-19T02:33:28.072Z,6.30
2018-04-19T02:35:54.908Z,6.40
2018-04-19T02:38:22.153Z,5.13
2018-04-19T02:40:49.051Z,5.97
2018-04-19T02:43:16.024Z,6.57
2018-04-19T02:45:42.977Z,6.20
2018-04-19T02:48:09.828Z,6.10
2018-04-19T02:50:36.745Z,6.10
2018-04-19T02:53:03.647Z,6.20
2018-04-19T02:55:30.478Z,5.87
2018-04-19T02:57:57.751Z,6.07
2018-04-19T03:00:24.973Z,6.23
2018-04-19T03:02:51.828Z,5.93
2018-04-19T03:05:18.762Z,5.30
2018-04-19T03:07:45.603Z,5.60
2018-04-19T03:10:12.463Z,5.73
2018-04-19T03:12:39.310Z,5.53
2018-04-19T03:15:06.279Z,5.73
2018-04-19T03:17:33.153Z,5.40
2018-04-19T03:19:59.989Z,6.50
2018-04-19T03:22:26.840Z,6.20
2018-04-19T03:24:53.719Z,6.10
2018-04-19T03:27:20.582Z,6.20
2018-04-19T03:29:47.406Z,6.07
2018-04-19T03:32:14.299Z,6.10
2018-04-19T03:34:41.152Z,6.83
2018-04-19T03:37:08.108Z,6.17
2018-04-19T03:39:34.961Z,5.63
2018-04-19T03:42:01.815Z,6.23
2018-04-19T03:44:28.670Z,5.80
2018-04-19T03:46:55.531Z,6.40
2018-04-19T03:49:22.372Z,6.50
2018-04-19T03:51:49.334Z,6.13
2018-04-19T03:54:16.291Z,6.30
2018-04-19T03:56:43.578Z,6.33
2018-04-19T03:59:10.426Z,6.00
2018-04-19T04:01:37.274Z,6.33
2018-04-19T04:04:04.236Z,6.30
2018-04-19T04:06:31.079Z,6.50
2018-04-19T04:08:57.915Z,6.20
2018-04-19T04:11:25.175Z,5.90
2018-04-19T04:13:52.091Z,6.40
2018-04-19T04:16:30.757Z,6.10
2018-04-19T04:19:09.566Z,6.50
2018-04-19T04:21:49.338Z,6.50
2018-04-19T04:24:16.293Z,6.20
2018-04-19T04:26:43.280Z,6.60
2018-04-19T04:29:10.127Z,6.20
2018-04-19T04:31:37.060Z,5.70
2018-04-19T04:34:03.918Z,6.53
2018-04-19T04:36:30.891Z,6.53
2018-04-19T04:38:57.824Z,6.50
2018-04-19T04:41:24.690Z,7.37
2018-04-19T04:43:51.756Z,6.67
2018-04-19T04:46:18.624Z,7.17
2018-04-19T04:48:45.475Z,7.10
2018-04-19T04:51:12.338Z,7.60
2018-04-19T04:53:39.646Z,6.43
2018-04-19T04:56:06.944Z,7.67
2018-04-19T04:58:33.831Z,7.10
2018-04-19T05:01:00.767Z,6.90
2018-04-19T05:03:27.675Z,6.90
2018-04-19T05:05:54.533Z,6.83
2018-04-19T05:08:21.474Z,7.03
2018-04-19T05:10:48.427Z,6.53
2018-04-19T05:13:15.304Z,7.50
2018-04-19T05:15:42.281Z,7.80
2018-04-19T05:18:09.584Z,7.83
2018-04-19T05:20:36.444Z,7.90
2018-04-19T05:23:03.351Z,7.10
2018-04-19T05:25:30.275Z,7.07
2018-04-19T05:27:57.205Z,6.80
2018-04-19T05:30:24.046Z,6.73
2018-04-19T05:32:51.330Z,6.67
2018-04-19T05:35:18.213Z,7.00
2018-04-19T05:37:45.073Z,7.47
2018-04-19T05:40:12.753Z,6.50
2018-04-19T05:42:39.576Z,7.67
2018-04-19T05:45:06.424Z,7.30
2018-04-19T05:47:33.283Z,7.50
2018-04-19T05:50:00.145Z,6.80
2018-04-19T05:52:27.412Z,7.00
2018-04-19T05:54:54.321Z,7.50
2018-04-19T05:57:21.249Z,8.40
2018-04-19T05:59:48.089Z,7.33
2018-04-19T06:02:15.357Z,8.47
2018-04-19T06:04:42.221Z,7.60
2018-04-19T06:07:09.182Z,8.27
2018-04-19T06:09:36.030Z,7.97
2018-04-19T06:12:02.883Z,7.20
2018-04-19T06:14:29.719Z,6.40
2018-04-19T06:16:57.011Z,6.63
2018-04-19T06:19:23.859Z,6.33
2018-04-19T06:21:50.724Z,6.20
2018-04-19T06:24:17.567Z,5.50
2018-04-19T06:26:44.438Z,5.77
2018-04-19T06:29:11.284Z,6.47
2018-04-19T06:31:38.174Z,6.30
2018-04-19T06:34:05.032Z,5.53
2018-04-19T06:36:31.886Z,6.07
2018-04-19T06:38:58.833Z,6.23
2018-04-19T06:41:25.677Z,6.23
2018-04-19T06:43:52.534Z,5.97
2018-04-19T06:46:19.400Z,5.03
2018-04-19T06:48:46.384Z,5.90
2018-04-19T06:51:13.414Z,6.27
2018-04-19T06:53:40.474Z,5.87
2018-04-19T06:56:07.692Z,6.33
2018-04-19T06:58:34.577Z,5.50
2018-04-19T07:01:01.820Z,6.27
2018-04-19T07:03:28.736Z,6.07
2018-04-19T07:05:55.587Z,6.30
2018-04-19T07:08:22.462Z,6.30
2018-04-19T07:10:49.347Z,6.43
2018-04-19T07:13:16.271Z,6.10
2018-04-19T07:15:43.116Z,7.27
2018-04-19T07:18:09.985Z,6.73
2018-04-19T07:20:36.828Z,7.00
2018-04-19T07:23:03.667Z,7.27
2018-04-19T07:25:30.951Z,7.60
2018-04-19T07:27:57.812Z,7.50
2018-04-19T07:30:24.662Z,7.50
2018-04-19T07:32:51.525Z,7.70
2018-04-19T07:35:18.471Z,8.63
2018-04-19T07:37:45.330Z,7.90
2018-04-19T07:40:12.443Z,8.50
2018-04-19T07:42:39.286Z,8.17
2018-04-19T07:45:06.166Z,8.40
2018-04-19T07:47:33.089Z,8.93
2018-04-19T07:49:59.946Z,8.83
2018-04-19T07:52:26.886Z,8.47
2018-04-19T07:54:53.750Z,9.20
2018-04-19T07:57:20.611Z,8.23
2018-04-19T07:59:47.657Z,8.77
2018-04-19T08:02:14.995Z,8.90
2018-04-19T08:04:41.896Z,8.63
2018-04-19T08:07:08.764Z,9.17
2018-04-19T08:09:35.715Z,9.57
2018-04-19T08:12:02.580Z,9.17
2018-04-19T08:14:29.452Z,8.50
2018-04-19T08:16:56.312Z,9.00
2018-04-19T08:19:23.249Z,8.73
2018-04-19T08:21:50.119Z,8.60
2018-04-19T08:24:17.064Z,9.50
2018-04-19T08:26:43.945Z,8.43
2018-04-19T08:29:10.862Z,8.87
2018-04-19T08:31:37.730Z,8.90
2018-04-19T08:34:04.679Z,8.20
2018-04-19T08:36:31.516Z,8.33
2018-04-19T08:38:58.771Z,8.80
2018-04-19T08:41:26.076Z,7.90
2018-04-19T08:43:52.917Z,8.57
2018-04-19T08:46:19.791Z,9.10
2018-04-19T08:48:46.744Z,7.40
2018-04-19T08:51:13.586Z,8.30
2018-04-19T08:53:40.452Z,8.60
2018-04-19T08:56:07.413Z,8.87
2018-04-19T08:58:34.371Z,8.17
2018-04-19T09:01:01.232Z,8.60
2018-04-19T09:03:28.185Z,8.27
2018-04-19T09:05:55.043Z,7.60
2018-04-19T09:08:22.286Z,8.40
2018-04-19T09:10:49.586Z,7.97
2018-04-19T09:13:16.447Z,8.20
2018-04-19T09:15:43.308Z,8.50
2018-04-19T09:18:10.142Z,8.30
2018-04-19T09:20:37.014Z,7.87
2018-04-19T09:23:03.874Z,8.70
2018-04-19T09:25:30.719Z,7.57
2018-04-19T09:27:57.579Z,7.60
2018-04-19T09:30:24.441Z,8.40
2018-04-19T09:32:51.428Z,7.20
2018-04-19T09:35:18.266Z,8.33
2018-04-19T09:37:45.134Z,7.30
2018-04-19T09:40:11.975Z,8.27
2018-04-19T09:42:38.961Z,8.97
2018-04-19T09:45:05.802Z,7.63
2018-04-19T09:47:32.741Z,7.23
2018-04-19T09:49:59.960Z,7.40
2018-04-19T09:52:26.817Z,7.70
2018-04-19T09:54:53.821Z,7.70
2018-04-19T09:57:21.045Z,7.60
2018-04-19T09:59:47.887Z,8.17
2018-04-19T10:02:14.741Z,7.67
2018-04-19T10:04:41.677Z,8.63
2018-04-19T10:07:08.618Z,7.97
2018-04-19T10:09:35.487Z,7.97
2018-04-19T10:12:02.431Z,6.20
2018-04-19T10:14:29.670Z,6.83
2018-04-19T10:16:56.938Z,7.33
2018-04-19T10:19:24.195Z,7.00
2018-04-19T10:21:51.043Z,7.43
2018-04-19T10:24:17.901Z,6.33
2018-04-19T10:26:44.778Z,6.40
2018-04-19T10:29:11.639Z,5.93
2018-04-19T10:31:38.962Z,6.30
2018-04-19T10:34:05.812Z,5.80
2018-04-19T10:36:32.712Z,5.67
2018-04-19T10:38:59.578Z,5.53
2018-04-19T10:41:26.887Z,5.20
2018-04-19T10:43:53.833Z,6.40
2018-04-19T10:46:20.691Z,6.20
2018-04-19T10:48:47.685Z,5.70
2018-04-19T10:51:14.559Z,6.73
2018-04-19T10:53:41.416Z,6.30
2018-04-19T10:56:08.276Z,5.60
2018-04-19T10:58:35.175Z,6.33
2018-04-19T11:01:02.074Z,5.37
2018-04-19T11:03:28.993Z,5.50
2018-04-19T11:05:55.936Z,5.53
2018-04-19T11:08:23.240Z,5.50
2018-04-19T11:10:50.219Z,5.40
2018-04-19T11:13:17.246Z,5.20
2018-04-19T11:15:44.136Z,5.77
2018-04-19T11:18:10.997Z,6.20
2018-04-19T11:20:37.883Z,5.77
2018-04-19T11:23:05.129Z,5.40
2018-04-19T11:25:32.015Z,6.47
2018-04-19T11:27:59.314Z,6.00
2018-04-19T11:30:26.270Z,6.13
2018-04-19T11:32:53.222Z,4.97
2018-04-19T11:35:20.058Z,5.40
2018-04-19T11:37:47.326Z,5.30
2018-04-19T11:40:14.615Z,5.00
2018-04-19T11:42:41.450Z,5.20
2018-04-19T11:45:08.741Z,4.17
2018-04-19T11:47:35.692Z,5.40
2018-04-19T11:50:03.062Z,5.50
2018-04-19T11:52:29.915Z,5.30
2018-04-19T11:54:56.756Z,5.40
2018-04-19T11:57:23.991Z,5.10
2018-04-19T11:59:50.854Z,5.07
2018-04-19T12:02:17.796Z,5.20
2018-04-19T12:04:44.636Z,4.90
2018-04-19T12:07:11.579Z,5.50
2018-04-19T12:09:38.423Z,5.73
2018-04-19T12:12:05.276Z,5.40
2018-04-19T12:14:32.520Z,4.70
2018-04-19T12:16:59.816Z,4.47
2018-04-19T12:19:27.098Z,4.37
2018-04-19T12:21:54.065Z,5.17
2018-04-19T12:24:20.904Z,5.27
2018-04-19T12:26:47.761Z,4.33
2018-04-19T12:29:14.622Z,5.57
2018-04-19T12:31:41.571Z,5.17
2018-04-19T12:34:08.417Z,4.97
2018-04-19T12:36:35.266Z,4.70
2018-04-19T12:39:02.547Z,5.80
2018-04-19T12:41:29.417Z,4.73
2018-04-19T12:43:56.298Z,4.60
2018-04-19T12:46:23.126Z,4.40
2018-04-19T12:48:49.983Z,4.90
2018-04-19T12:51:16.838Z,5.10
2018-04-19T12:53:43.743Z,5.03
2018-04-19T12:56:10.590Z,4.30
2018-04-19T12:58:37.531Z,3.80
2018-04-19T13:01:04.388Z,4.10
2018-04-19T13:03:31.235Z,4.30
2018-04-19T13:05:58.190Z,3.87
2018-04-19T13:08:25.047Z,3.43
2018-04-19T13:10:51.903Z,3.40
2018-04-19T13:13:18.750Z,2.97
2018-04-19T13:15:45.623Z,3.03
2018-04-19T13:18:12.542Z,3.43
2018-04-19T13:20:39.529Z,3.00
2018-04-19T13:23:06.904Z,2.83
2018-04-19T13:25:33.759Z,2.60
2018-04-19T13:28:00.653Z,3.07
2018-04-19T13:30:27.575Z,3.00
2018-04-19T13:32:54.439Z,2.33
2018-04-19T13:35:21.396Z,2.70
2018-04-19T13:37:48.243Z,3.07
2018-04-19T13:40:15.123Z,2.80
2018-04-19T13:42:41.974Z,2.73
2018-04-19T13:45:08.810Z,3.07
2018-04-19T13:47:35.663Z,2.40
2018-04-19T13:50:02.541Z,2.40
2018-04-19T13:52:29.398Z,2.83
2018-04-19T13:54:56.253Z,2.90
2018-04-19T13:57:23.109Z,2.50
2018-04-19T13:59:50.059Z,2.10
2018-04-19T14:02:16.904Z,2.23
2018-04-19T14:04:44.267Z,2.20
2018-04-19T14:07:11.495Z,3.40
2018-04-19T14:09:38.432Z,2.67
2018-04-19T14:12:05.286Z,2.70
2018-04-19T14:14:32.235Z,2.97
2018-04-19T14:16:59.178Z,2.80
2018-04-19T14:19:26.129Z,2.40
2018-04-19T14:21:53.016Z,2.63
2018-04-19T14:24:19.899Z,2.73
2018-04-19T14:26:46.758Z,2.80
2018-04-19T14:29:13.599Z,3.13
2018-04-19T14:31:40.542Z,3.00
2018-04-19T14:34:07.378Z,2.90
2018-04-19T14:36:34.342Z,3.10
2018-04-19T14:39:01.201Z,2.77
2018-04-19T14:41:28.055Z,3.10
2018-04-19T14:43:55.025Z,2.70
2018-04-19T14:46:21.861Z,2.33
2018-04-19T14:48:48.759Z,2.33
2018-04-19T14:51:15.654Z,2.10
2018-04-19T14:53:42.497Z,2.07
2018-04-19T14:56:09.335Z,2.80
2018-04-19T14:58:36.254Z,3.23
2018-04-19T15:01:03.124Z,2.33
2018-04-19T15:03:30.078Z,2.70
2018-04-19T15:05:56.940Z,2.27
2018-04-19T15:08:23.784Z,2.83
2018-04-19T15:10:50.656Z,2.40
2018-04-19T15:13:17.495Z,1.77
2018-04-19T15:15:44.349Z,2.80
2018-04-19T15:18:11.311Z,4.77
2018-04-19T15:20:38.180Z,2.90
2018-04-19T15:23:05.023Z,4.00
2018-04-19T15:25:31.993Z,2.80
2018-04-19T15:27:58.971Z,2.80
2018-04-19T15:30:25.815Z,2.73
2018-04-19T15:32:52.767Z,3.07
2018-04-19T15:35:19.986Z,2.37
2018-04-19T15:37:46.920Z,2.70
2018-04-19T15:40:13.787Z,2.87
2018-04-19T15:42:40.640Z,2.97
2018-04-19T15:45:07.493Z,2.33
2018-04-19T15:47:34.349Z,2.47
2018-04-19T15:50:01.365Z,2.20
2018-04-19T15:52:28.184Z,2.97
2018-04-19T15:54:55.060Z,2.93
2018-04-19T15:57:21.968Z,3.00
2018-04-19T15:59:48.928Z,2.27
2018-04-19T16:02:15.782Z,2.70
2018-04-19T16:04:43.863Z,2.40
2018-04-19T16:07:10.712Z,2.60
2018-04-19T16:09:37.546Z,2.93
2018-04-19T16:12:04.930Z,2.70
2018-04-19T16:14:31.809Z,2.50
2018-04-19T16:16:58.667Z,2.57
2018-04-19T16:19:25.526Z,2.60
2018-04-19T16:21:52.367Z,2.87
2018-04-19T16:24:19.230Z,3.90
2018-04-19T16:26:46.106Z,3.93
2018-04-19T16:29:13.116Z,3.30
2018-04-19T16:31:40.354Z,3.20
2018-04-19T16:34:07.271Z,3.20
2018-04-19T16:36:34.132Z,3.00
2018-04-19T16:39:00.987Z,2.47
2018-04-19T16:41:27.847Z,2.27
2018-04-19T16:43:54.716Z,2.40
2018-04-19T16:46:21.653Z,2.83
2018-04-19T16:48:48.515Z,2.20
2018-04-19T16:51:15.381Z,2.60
2018-04-19T16:53:42.334Z,2.13
2018-04-19T16:56:09.279Z,2.27
2018-04-19T16:58:36.234Z,1.57
2018-04-19T17:01:03.118Z,2.20
2018-04-19T17:03:30.109Z,2.10
2018-04-19T17:05:57.030Z,1.77
2018-04-19T17:08:23.983Z,1.80
2018-04-19T17:10:50.850Z,3.00
2018-04-19T17:13:17.800Z,2.03
2018-04-19T17:15:44.650Z,2.57
2018-04-19T17:18:11.616Z,2.67
2018-04-19T17:20:38.500Z,2.30
2018-04-19T17:23:05.463Z,2.70
2018-04-19T17:25:32.330Z,2.60
2018-04-19T17:27:59.370Z,2.97
2018-04-19T17:30:26.715Z,2.80
2018-04-19T17:32:53.627Z,2.93
2018-04-19T17:35:20.903Z,2.80
2018-04-19T17:37:48.147Z,2.50
2018-04-19T17:40:15.071Z,3.20
2018-04-19T17:42:41.940Z,3.00
2018-04-19T17:45:08.815Z,2.40
2018-04-19T17:47:35.693Z,2.30
2018-04-19T17:50:02.573Z,2.60
2018-04-19T17:52:29.450Z,2.80
2018-04-19T17:54:56.343Z,2.67
2018-04-19T17:57:23.266Z,2.90
2018-04-19T17:59:50.517Z,3.00
2018-04-19T18:02:17.816Z,3.73
2018-04-19T18:04:44.678Z,2.70
2018-04-19T18:07:11.533Z,3.17
2018-04-19T18:09:38.402Z,2.80
2018-04-19T18:12:05.283Z,3.40
2018-04-19T18:14:32.195Z,3.23
2018-04-19T18:16:59.062Z,2.80
2018-04-19T18:19:26.163Z,3.33
2018-04-19T18:21:53.418Z,3.17
2018-04-19T18:24:20.269Z,5.30
2018-04-19T18:26:47.196Z,3.87
2018-04-19T18:29:14.070Z,3.20
2018-04-19T18:31:41.008Z,3.10
2018-04-19T18:34:07.858Z,2.93
2018-04-19T18:36:34.727Z,2.93
2018-04-19T18:39:01.687Z,3.07
2018-04-19T18:41:28.542Z,2.70
2018-04-19T18:43:55.393Z,3.70
2018-04-19T18:46:22.277Z,3.37
2018-04-19T18:48:49.118Z,3.60
2018-04-19T18:51:15.981Z,3.20
2018-04-19T18:53:42.934Z,3.17
2018-04-19T18:56:09.798Z,3.10
2018-04-19T18:58:36.742Z,3.30
2018-04-19T19:01:03.634Z,3.73
2018-04-19T19:03:30.568Z,3.80
2018-04-19T19:05:57.431Z,3.90
2018-04-19T19:08:24.279Z,3.40
2018-04-19T19:10:51.144Z,3.73
2018-04-19T19:13:17.973Z,3.73
2018-04-19T19:19:00.835Z,4.07
2018-04-19T19:21:28.139Z,4.30
2018-04-19T19:23:55.005Z,4.10
2018-04-19T19:26:21.930Z,3.97
2018-04-19T19:28:48.791Z,4.50
2018-04-19T19:31:15.711Z,4.23
2018-04-19T19:33:42.566Z,4.70
2018-04-19T19:36:09.415Z,4.10
2018-04-19T19:38:36.274Z,4.07
2018-04-19T19:41:03.153Z,4.10
2018-04-19T19:43:30.383Z,4.33
2018-04-19T19:45:57.307Z,4.10
2018-04-19T19:48:24.180Z,4.70
2018-04-19T19:50:51.154Z,4.47
2018-04-19T19:53:18.028Z,4.60
2018-04-19T19:55:45.059Z,4.10
2018-04-19T19:58:11.966Z,4.67
2018-04-19T20:00:38.790Z,4.43
2018-04-19T20:03:05.784Z,4.27
2018-04-19T20:05:32.700Z,4.47
2018-04-19T20:07:59.650Z,4.73
2018-04-19T20:10:26.533Z,5.10
2018-04-19T20:12:53.370Z,4.70
2018-04-19T20:15:20.249Z,4.10
2018-04-19T20:17:47.183Z,4.17
2018-04-19T20:20:14.062Z,4.30
2018-04-19T20:22:40.929Z,4.80
2018-04-19T20:25:07.788Z,5.00
2018-04-19T20:27:34.641Z,5.20
2018-04-19T20:30:01.595Z,4.20
2018-04-19T20:32:28.435Z,4.90
2018-04-19T20:34:55.347Z,4.03
2018-04-19T20:37:22.642Z,4.00
2018-04-19T20:39:49.511Z,4.60
2018-04-19T20:42:16.387Z,4.03
2018-04-19T20:44:43.316Z,5.00
2018-04-19T20:47:10.274Z,4.13
2018-04-19T20:49:37.136Z,3.90
2018-04-19T20:52:04.006Z,3.90
2018-04-19T20:54:30.927Z,4.40
2018-04-19T20:56:57.766Z,3.87
2018-04-19T20:59:25.050Z,3.80
2018-04-19T21:01:51.921Z,3.70
2018-04-19T21:04:18.883Z,3.97
2018-04-19T21:06:45.767Z,3.90
2018-04-19T21:09:12.604Z,3.77
2018-04-19T21:11:39.479Z,3.70
2018-04-19T21:14:06.411Z,3.93
2018-04-19T21:16:33.275Z,4.00
2018-04-19T21:19:00.127Z,4.70
2018-04-19T21:21:26.997Z,4.40
2018-04-19T21:23:53.949Z,4.40
2018-04-19T21:26:20.791Z,4.10
2018-04-19T21:28:47.649Z,3.40
2018-04-19T21:31:14.516Z,4.20
2018-04-19T21:33:41.374Z,4.90
2018-04-19T21:36:08.252Z,3.50
2018-04-19T21:38:35.177Z,4.00
2018-04-19T21:41:02.957Z,4.23
2018-04-19T21:43:29.796Z,3.87
2018-04-19T21:45:57.383Z,5.07
2018-04-19T21:48:24.242Z,3.63
2018-04-19T21:50:51.083Z,4.00
2018-04-19T21:53:18.347Z,4.70
2018-04-19T21:55:45.574Z,3.73
2018-04-19T21:58:12.435Z,3.70
2018-04-19T22:00:39.282Z,3.60
2018-04-19T22:03:06.216Z,4.40
2018-04-19T22:05:33.088Z,3.60
2018-04-19T22:07:59.906Z,3.53
2018-04-19T22:10:26.757Z,4.00
2018-04-19T22:12:53.998Z,3.63
2018-04-19T22:15:20.858Z,4.20
2018-04-19T22:17:47.764Z,5.23
2018-04-19T22:20:14.629Z,3.60
2018-04-19T22:22:41.578Z,4.10
2018-04-19T22:25:08.526Z,4.57
2018-04-19T22:27:35.376Z,4.10
2018-04-19T22:30:02.346Z,3.83
2018-04-19T22:32:29.195Z,4.10
2018-04-19T22:34:56.026Z,4.20
2018-04-19T22:37:23.326Z,4.60
2018-04-19T22:39:50.284Z,3.90
2018-04-19T22:42:17.250Z,3.50
2018-04-19T22:44:44.087Z,3.87
2018-04-19T22:47:11.050Z,4.10
2018-04-19T22:49:37.894Z,4.50
2018-04-19T22:52:05.202Z,4.50
2018-04-19T22:54:32.146Z,4.10
2018-04-19T22:56:59.001Z,3.73
2018-04-19T22:59:25.851Z,4.43
2018-04-19T23:01:52.815Z,4.00
2018-04-19T23:04:19.645Z,4.13
2018-04-19T23:06:46.902Z,4.83
2018-04-19T23:09:13.817Z,4.33
2018-04-19T23:11:40.749Z,4.60
2018-04-19T23:14:07.654Z,4.50
2018-04-19T23:16:34.583Z,4.47
2018-04-19T23:19:01.457Z,4.30
2018-04-19T23:21:28.395Z,4.30
2018-04-19T23:23:55.351Z,4.40
2018-04-19T23:26:22.181Z,4.23
2018-04-19T23:28:49.476Z,5.07
2018-04-19T23:31:16.338Z,4.07
2018-04-19T23:33:43.197Z,4.60
2018-04-19T23:36:10.049Z,4.27
2018-04-19T23:38:36.917Z,4.27
2018-04-19T23:41:03.819Z,4.60
2018-04-19T23:43:30.693Z,4.07
2018-04-19T23:45:57.937Z,3.77
2018-04-19T23:48:24.815Z,4.07
2018-04-19T23:50:52.115Z,3.70
2018-04-19T23:53:18.966Z,3.77
2018-04-19T23:55:45.820Z,4.20
2018-04-19T23:58:12.688Z,3.90
